createdAt,value
2022-11-21T00:00:18.789Z,1048.70
2022-11-21T00:01:13.981Z,1057.01
2022-11-21T00:02:09.920Z,1055.34
2022-11-21T00:03:04.974Z,1057.84
2022-11-21T00:04:00.145Z,1048.70
2022-11-21T00:04:56.533Z,1056.17
2022-11-21T00:05:51.725Z,1054.50
2022-11-21T00:06:47.597Z,1050.35
2022-11-21T00:07:42.773Z,1047.06
2022-11-21T00:08:37.911Z,1047.88
2022-11-21T00:09:33.707Z,1046.24
2022-11-21T00:10:28.867Z,1051.18
2022-11-21T00:11:25.007Z,1046.24
2022-11-21T00:12:20.036Z,1041.34
2022-11-21T00:13:15.091Z,1041.34
2022-11-21T00:14:10.964Z,1033.28
2022-11-21T00:15:06.279Z,1039.72
2022-11-21T00:16:01.411Z,1029.30
2022-11-21T00:16:57.714Z,1028.51
2022-11-21T00:17:52.597Z,1032.48
2022-11-21T00:18:48.018Z,1031.69
2022-11-21T00:19:44.067Z,1030.09
2022-11-21T00:20:39.246Z,1032.48
2022-11-21T00:21:35.165Z,1036.49
2022-11-21T00:22:30.196Z,1038.91
2022-11-21T00:23:25.663Z,1035.69
2022-11-21T00:24:21.433Z,1045.42
2022-11-21T00:25:16.622Z,1044.60
2022-11-21T00:26:12.423Z,1049.53
2022-11-21T00:27:07.550Z,1042.97
2022-11-21T00:28:02.871Z,1048.70
2022-11-21T00:28:58.614Z,1048.70
2022-11-21T00:29:53.915Z,1043.78
2022-11-21T00:30:48.941Z,1046.24
2022-11-21T00:31:44.164Z,1056.17
2022-11-21T00:32:39.432Z,1047.88
2022-11-21T00:33:34.470Z,1046.24
2022-11-21T00:34:29.804Z,1056.17
2022-11-21T00:35:24.661Z,1054.50
2022-11-21T00:36:19.667Z,1051.18
2022-11-21T00:37:14.723Z,1052.01
2022-11-21T00:38:09.714Z,1048.70
2022-11-21T00:39:04.867Z,1047.88
2022-11-21T00:39:59.915Z,1049.53
2022-11-21T00:40:54.967Z,1060.36
2022-11-21T00:41:49.995Z,1052.84
2022-11-21T00:42:45.074Z,1056.17
2022-11-21T00:43:40.114Z,1061.21
2022-11-21T00:44:35.191Z,1050.35
2022-11-21T00:45:30.242Z,1060.36
2022-11-21T00:46:25.280Z,1064.59
2022-11-21T00:47:20.543Z,1070.57
2022-11-21T00:48:15.327Z,1059.52
2022-11-21T00:49:10.392Z,1064.59
2022-11-21T00:50:05.426Z,1065.44
2022-11-21T00:51:00.495Z,1070.57
2022-11-21T00:51:55.480Z,1068.00
2022-11-21T00:52:50.461Z,1068.85
2022-11-21T00:53:45.543Z,1068.85
2022-11-21T00:54:40.529Z,1059.52
2022-11-21T00:55:41.525Z,1060.36
2022-11-21T00:56:36.766Z,1069.71
2022-11-21T00:57:34.143Z,1070.57
2022-11-21T00:58:29.281Z,1066.29
2022-11-21T00:59:24.435Z,1069.71
2022-11-21T01:00:19.719Z,1074.88
2022-11-21T01:01:14.965Z,1073.15
2022-11-21T01:02:10.394Z,1075.74
2022-11-21T01:03:05.429Z,1079.22
2022-11-21T01:04:00.437Z,1082.72
2022-11-21T01:04:55.669Z,1076.61
2022-11-21T01:05:51.520Z,1085.37
2022-11-21T01:06:46.749Z,1085.37
2022-11-21T01:07:42.795Z,1083.60
2022-11-21T01:08:37.715Z,1079.22
2022-11-21T01:09:33.046Z,1074.01
2022-11-21T01:10:28.826Z,1074.88
2022-11-21T01:11:24.076Z,1074.01
2022-11-21T01:12:19.233Z,1084.48
2022-11-21T01:13:16.498Z,1069.71
2022-11-21T01:14:10.904Z,1074.01
2022-11-21T01:15:06.773Z,1078.35
2022-11-21T01:16:01.921Z,1079.22
2022-11-21T01:16:57.160Z,1078.35
2022-11-21T01:17:53.115Z,1081.85
2022-11-21T01:18:48.042Z,1083.60
2022-11-21T01:19:44.026Z,1078.35
2022-11-21T01:20:39.178Z,1071.43
2022-11-21T01:21:34.616Z,1085.37
2022-11-21T01:22:30.339Z,1085.37
2022-11-21T01:23:25.562Z,1079.22
2022-11-21T01:24:20.748Z,1082.72
2022-11-21T01:25:17.307Z,1080.97
2022-11-21T01:26:12.382Z,1071.43
2022-11-21T01:27:08.207Z,1072.29
2022-11-21T01:28:03.376Z,1069.71
2022-11-21T01:28:58.563Z,1068.00
2022-11-21T01:29:54.313Z,1074.01
2022-11-21T01:30:49.518Z,1076.61
2022-11-21T01:31:45.323Z,1090.69
2022-11-21T01:32:40.649Z,1092.47
2022-11-21T01:33:35.812Z,1092.47
2022-11-21T01:34:31.901Z,1096.06
2022-11-21T01:35:26.942Z,1091.58
2022-11-21T01:36:22.292Z,1096.06
2022-11-21T01:37:18.707Z,1094.26
2022-11-21T01:38:13.740Z,1096.96
2022-11-21T01:39:09.731Z,1096.06
2022-11-21T01:40:04.941Z,1102.40
2022-11-21T01:41:00.229Z,1097.86
2022-11-21T01:41:55.986Z,1101.48
2022-11-21T01:42:51.181Z,1106.96
2022-11-21T01:43:47.074Z,1106.96
2022-11-21T01:44:42.099Z,1118.09
2022-11-21T01:45:37.627Z,1112.50
2022-11-21T01:46:33.196Z,1125.63
2022-11-21T01:47:28.475Z,1109.73
2022-11-21T01:48:23.558Z,1111.57
2022-11-21T01:49:20.071Z,1110.65
2022-11-21T01:50:15.266Z,1112.50
2022-11-21T01:51:11.286Z,1124.68
2022-11-21T01:52:06.305Z,1114.36
2022-11-21T01:53:01.605Z,1118.09
2022-11-21T01:53:57.474Z,1122.79
2022-11-21T01:54:52.664Z,1116.22
2022-11-21T01:55:48.520Z,1127.53
2022-11-21T01:56:43.734Z,1116.22
2022-11-21T01:57:39.123Z,1127.53
2022-11-21T01:58:34.838Z,1123.74
2022-11-21T01:59:30.136Z,1130.40
2022-11-21T02:00:25.121Z,1129.44
2022-11-21T02:01:21.841Z,1128.49
2022-11-21T02:02:17.048Z,1122.79
2022-11-21T02:03:12.638Z,1130.40
2022-11-21T02:04:07.927Z,1121.85
2022-11-21T02:05:02.971Z,1127.53
2022-11-21T02:05:58.149Z,1133.28
2022-11-21T02:06:53.315Z,1123.74
2022-11-21T02:07:50.123Z,1139.08
2022-11-21T02:08:45.026Z,1122.79
2022-11-21T02:09:40.876Z,1122.79
2022-11-21T02:10:36.235Z,1130.40
2022-11-21T02:11:31.536Z,1134.24
2022-11-21T02:12:27.296Z,1122.79
2022-11-21T02:13:22.556Z,1127.53
2022-11-21T02:14:18.425Z,1140.05
2022-11-21T02:15:13.413Z,1127.53
2022-11-21T02:16:08.809Z,1131.36
2022-11-21T02:17:04.533Z,1124.68
2022-11-21T02:17:59.929Z,1123.74
2022-11-21T02:18:55.038Z,1128.49
2022-11-21T02:19:51.599Z,1123.74
2022-11-21T02:20:46.891Z,1105.13
2022-11-21T02:21:42.817Z,1087.13
2022-11-21T02:22:37.856Z,1094.26
2022-11-21T02:23:33.006Z,1087.13
2022-11-21T02:24:28.293Z,1090.69
2022-11-21T02:25:23.573Z,1084.48
2022-11-21T02:26:18.629Z,1076.61
2022-11-21T02:27:13.878Z,1085.37
2022-11-21T02:28:08.923Z,1090.69
2022-11-21T02:29:05.109Z,1082.72
2022-11-21T02:30:00.077Z,1093.37
2022-11-21T02:30:55.407Z,1082.72
2022-11-21T02:31:50.565Z,1084.48
2022-11-21T02:32:45.681Z,1076.61
2022-11-21T02:33:40.809Z,1083.60
2022-11-21T02:34:35.730Z,1085.37
2022-11-21T02:35:30.873Z,1096.06
2022-11-21T02:36:25.919Z,1098.77
2022-11-21T02:37:20.952Z,1095.16
2022-11-21T02:38:16.033Z,1084.48
2022-11-21T02:39:11.106Z,1090.69
2022-11-21T02:40:06.143Z,1088.91
2022-11-21T02:41:01.188Z,1092.47
2022-11-21T02:41:56.257Z,1085.37
2022-11-21T02:42:52.865Z,1085.37
2022-11-21T02:43:46.330Z,1086.25
2022-11-21T02:44:42.039Z,1087.13
2022-11-21T02:45:37.477Z,1085.37
2022-11-21T02:46:32.521Z,1086.25
2022-11-21T02:47:27.818Z,1071.43
2022-11-21T02:48:22.849Z,1090.69
2022-11-21T02:49:18.149Z,1086.25
2022-11-21T02:50:13.147Z,1088.91
2022-11-21T02:51:08.566Z,1086.25
2022-11-21T02:52:03.799Z,1081.85
2022-11-21T02:52:58.809Z,1091.58
2022-11-21T02:53:54.128Z,1087.13
2022-11-21T02:54:49.917Z,1086.25
2022-11-21T02:55:44.773Z,1077.48
2022-11-21T02:56:39.973Z,1079.22
2022-11-21T02:57:34.952Z,1086.25
2022-11-21T02:58:30.088Z,1083.60
2022-11-21T02:59:25.224Z,1080.10
2022-11-21T03:00:20.537Z,1094.26
2022-11-21T03:01:15.789Z,1087.13
2022-11-21T03:02:10.816Z,1089.80
2022-11-21T03:03:06.115Z,1092.47
2022-11-21T03:04:01.173Z,1095.16
2022-11-21T03:04:56.985Z,1090.69
2022-11-21T03:05:51.603Z,1097.86
2022-11-21T03:06:46.621Z,1084.48
2022-11-21T03:07:42.027Z,1090.69
2022-11-21T03:08:37.086Z,1073.15
2022-11-21T03:09:32.239Z,1076.61
2022-11-21T03:10:27.439Z,1088.91
2022-11-21T03:11:22.739Z,1079.22
2022-11-21T03:12:17.913Z,1083.60
2022-11-21T03:13:13.207Z,1077.48
2022-11-21T03:14:08.238Z,1073.15
2022-11-21T03:15:03.456Z,1065.44
2022-11-21T03:15:58.781Z,1070.57
2022-11-21T03:16:53.795Z,1075.74
2022-11-21T03:17:49.025Z,1076.61
2022-11-21T03:18:44.203Z,1077.48
2022-11-21T03:19:39.609Z,1080.97
2022-11-21T03:20:34.704Z,1071.43
2022-11-21T03:21:29.863Z,1080.10
2022-11-21T03:22:25.024Z,1083.60
2022-11-21T03:23:20.274Z,1084.48
2022-11-21T03:24:15.442Z,1082.72
2022-11-21T03:25:10.681Z,1075.74
2022-11-21T03:26:05.956Z,1077.48
2022-11-21T03:27:01.002Z,1076.61
2022-11-21T03:27:56.179Z,1080.10
2022-11-21T03:28:51.326Z,1069.71
2022-11-21T03:29:49.480Z,1071.43
2022-11-21T03:30:44.569Z,1070.57
2022-11-21T03:31:39.756Z,1066.29
2022-11-21T03:32:35.077Z,1063.74
2022-11-21T03:33:30.394Z,1058.68
2022-11-21T03:34:26.562Z,1066.29
2022-11-21T03:35:21.760Z,1073.15
2022-11-21T03:36:15.987Z,1075.74
2022-11-21T03:37:11.051Z,1072.29
2022-11-21T03:38:06.060Z,1074.88
2022-11-21T03:39:01.089Z,1071.43
2022-11-21T03:39:56.135Z,1069.71
2022-11-21T03:40:51.328Z,1059.52
2022-11-21T03:41:47.148Z,1057.84
2022-11-21T03:42:41.388Z,1057.84
2022-11-21T03:43:36.439Z,1050.35
2022-11-21T03:44:31.485Z,1034.88
2022-11-21T03:45:26.512Z,1026.92
2022-11-21T03:46:21.614Z,1019.86
2022-11-21T03:47:16.595Z,1022.99
2022-11-21T03:48:11.649Z,965.29
2022-11-21T03:49:06.753Z,978.74
2022-11-21T03:50:01.773Z,988.16
2022-11-21T03:50:56.806Z,978.02
2022-11-21T03:51:51.820Z,969.50
2022-11-21T03:52:46.907Z,983.79
2022-11-21T03:53:42.042Z,995.53
2022-11-21T03:54:37.011Z,1009.07
2022-11-21T03:55:32.073Z,1011.36
2022-11-21T03:56:27.053Z,1026.92
2022-11-21T03:57:22.252Z,1033.28
2022-11-21T03:58:17.306Z,1045.42
2022-11-21T03:59:12.470Z,1060.36
2022-11-21T04:00:07.472Z,1072.29
2022-11-21T04:01:02.700Z,1066.29
2022-11-21T04:01:57.634Z,1075.74
2022-11-21T04:02:54.284Z,1081.85
2022-11-21T04:03:49.377Z,1080.97
2022-11-21T04:04:44.510Z,1085.37
2022-11-21T04:05:39.507Z,1081.85
2022-11-21T04:06:34.658Z,1090.69
2022-11-21T04:07:29.763Z,1092.47
2022-11-21T04:08:24.798Z,1100.58
2022-11-21T04:09:19.840Z,1102.40
2022-11-21T04:10:14.904Z,1089.80
2022-11-21T04:11:10.045Z,1090.69
2022-11-21T04:12:07.759Z,1088.91
2022-11-21T04:13:00.255Z,1097.86
2022-11-21T04:13:55.365Z,1107.88
2022-11-21T04:14:50.421Z,1115.29
2022-11-21T04:15:45.480Z,1121.85
2022-11-21T04:16:40.512Z,1125.63
2022-11-21T04:17:35.541Z,1118.09
2022-11-21T04:18:30.530Z,1120.91
2022-11-21T04:19:27.584Z,1114.36
2022-11-21T04:20:22.553Z,1119.03
2022-11-21T04:21:17.659Z,1125.63
2022-11-21T04:22:12.663Z,1124.68
2022-11-21T04:23:07.708Z,1132.32
2022-11-21T04:24:02.851Z,1096.96
2022-11-21T04:24:57.976Z,1088.02
2022-11-21T04:25:53.068Z,1078.35
2022-11-21T04:26:48.287Z,1086.25
2022-11-21T04:27:43.430Z,1095.16
2022-11-21T04:28:38.584Z,1088.02
2022-11-21T04:29:33.736Z,1088.02
2022-11-21T04:30:28.854Z,1088.02
2022-11-21T04:31:23.834Z,1099.67
2022-11-21T04:32:18.892Z,1109.73
2022-11-21T04:33:13.903Z,1109.73
2022-11-21T04:34:08.990Z,1055.34
2022-11-21T04:35:03.972Z,1053.67
2022-11-21T04:36:01.141Z,1062.90
2022-11-21T04:36:56.195Z,1055.34
2022-11-21T04:37:51.211Z,1056.17
2022-11-21T04:38:46.383Z,1069.71
2022-11-21T04:39:41.260Z,1084.48
2022-11-21T04:40:36.220Z,1088.91
2022-11-21T04:41:31.270Z,1088.02
2022-11-21T04:42:26.272Z,1110.65
2022-11-21T04:43:22.280Z,1088.91
2022-11-21T04:44:17.412Z,1080.97
2022-11-21T04:45:12.538Z,1074.88
2022-11-21T04:46:07.702Z,1078.35
2022-11-21T04:47:05.607Z,1099.67
2022-11-21T04:47:58.107Z,1109.73
2022-11-21T04:48:53.315Z,1107.88
2022-11-21T04:49:48.406Z,1112.50
2022-11-21T04:50:43.843Z,1101.48
2022-11-21T04:51:41.447Z,1102.40
2022-11-21T04:52:36.698Z,1115.29
2022-11-21T04:53:31.924Z,1115.29
2022-11-21T04:54:27.466Z,1110.65
2022-11-21T04:55:22.344Z,1078.35
2022-11-21T04:56:17.865Z,1062.05
2022-11-21T04:57:12.930Z,1081.85
2022-11-21T04:58:07.922Z,1092.47
2022-11-21T04:59:03.150Z,1096.06
2022-11-21T04:59:59.115Z,1110.65
2022-11-21T05:00:54.309Z,1128.49
2022-11-21T05:01:50.053Z,1136.17
2022-11-21T05:02:45.230Z,1144.94
2022-11-21T05:03:40.739Z,1151.85
2022-11-21T05:04:36.336Z,1041.34
2022-11-21T05:05:31.509Z,1047.88
2022-11-21T05:06:26.674Z,1063.74
2022-11-21T05:07:23.234Z,1066.29
2022-11-21T05:08:18.413Z,1076.61
2022-11-21T05:09:14.125Z,1053.67
2022-11-21T05:10:09.366Z,1047.06
2022-11-21T05:11:04.567Z,1052.01
2022-11-21T05:12:00.494Z,1062.05
2022-11-21T05:12:55.819Z,1075.74
2022-11-21T05:13:51.677Z,1091.58
2022-11-21T05:14:46.685Z,1083.60
2022-11-21T05:15:42.125Z,1074.01
2022-11-21T05:16:37.854Z,1076.61
2022-11-21T05:17:33.189Z,1096.06
2022-11-21T05:18:28.222Z,1102.40
2022-11-21T05:19:24.599Z,1101.48
2022-11-21T05:20:19.939Z,1102.40
2022-11-21T05:21:15.699Z,1117.16
2022-11-21T05:22:10.979Z,1118.09
2022-11-21T05:23:06.445Z,1121.85
2022-11-21T05:24:02.042Z,1120.91
2022-11-21T05:24:57.201Z,1123.74
2022-11-21T05:25:53.191Z,1124.68
2022-11-21T05:26:48.361Z,1116.22
2022-11-21T05:27:43.786Z,1128.49
2022-11-21T05:28:39.657Z,1099.67
2022-11-21T05:29:34.819Z,1068.00
2022-11-21T05:30:29.996Z,1052.84
2022-11-21T05:31:26.396Z,1034.08
2022-11-21T05:32:21.661Z,1012.13
2022-11-21T05:33:17.414Z,1006.79
2022-11-21T05:34:12.565Z,1021.42
2022-11-21T05:35:07.969Z,1022.21
2022-11-21T05:36:03.885Z,1019.08
2022-11-21T05:36:59.127Z,1034.08
2022-11-21T05:37:54.879Z,1031.69
2022-11-21T05:38:50.070Z,1036.49
2022-11-21T05:39:45.575Z,1032.48
2022-11-21T05:40:41.076Z,1023.77
2022-11-21T05:41:36.249Z,991.09
2022-11-21T05:42:31.425Z,970.20
2022-11-21T05:43:27.768Z,963.20
2022-11-21T05:44:22.932Z,983.79
2022-11-21T05:45:18.905Z,977.31
2022-11-21T05:46:13.846Z,986.70
2022-11-21T05:47:09.052Z,982.34
2022-11-21T05:48:04.868Z,985.24
2022-11-21T05:49:00.049Z,1026.92
2022-11-21T05:49:55.816Z,1042.16
2022-11-21T05:50:51.028Z,1038.10
2022-11-21T05:51:46.351Z,1022.21
2022-11-21T05:52:42.270Z,994.78
2022-11-21T05:53:37.608Z,961.82
2022-11-21T05:54:32.746Z,991.83
2022-11-21T05:55:29.228Z,985.97
2022-11-21T05:56:24.581Z,994.04
2022-11-21T05:57:20.148Z,1012.13
2022-11-21T05:58:15.325Z,1043.78
2022-11-21T05:59:10.488Z,1022.21
2022-11-21T06:00:05.727Z,1039.72
2022-11-21T06:01:01.088Z,1030.09
2022-11-21T06:03:24.877Z,933.57
2022-11-21T06:04:18.974Z,971.62
2022-11-21T06:05:14.235Z,997.01
2022-11-21T06:06:09.363Z,936.18
2022-11-21T06:07:04.475Z,909.40
2022-11-21T06:07:59.782Z,952.21
2022-11-21T06:08:54.754Z,978.02
2022-11-21T06:09:49.987Z,991.83
2022-11-21T06:10:45.068Z,987.43
2022-11-21T06:11:40.312Z,975.88
2022-11-21T06:12:35.611Z,968.79
2022-11-21T06:13:30.942Z,978.74
2022-11-21T06:14:26.291Z,946.81
2022-11-21T06:15:21.140Z,873.12
2022-11-21T06:16:16.425Z,928.37
2022-11-21T06:17:11.668Z,948.83
2022-11-21T06:18:06.811Z,879.45
2022-11-21T06:19:01.940Z,890.59
2022-11-21T06:19:57.097Z,893.57
2022-11-21T06:20:52.216Z,920.69
2022-11-21T06:21:47.403Z,720.12
2022-11-21T06:22:42.597Z,796.06
2022-11-21T06:23:37.876Z,810.07
2022-11-21T06:24:32.877Z,864.64
2022-11-21T06:25:28.154Z,894.77
2022-11-21T06:26:23.325Z,924.52
2022-11-21T06:27:18.743Z,944.13
2022-11-21T06:28:13.828Z,853.03
2022-11-21T06:29:09.013Z,808.11
2022-11-21T06:30:04.058Z,829.71
2022-11-21T06:30:59.280Z,861.85
2022-11-21T06:31:54.486Z,875.98
2022-11-21T06:32:49.744Z,882.35
2022-11-21T06:33:46.172Z,864.64
2022-11-21T06:34:40.323Z,856.87
2022-11-21T06:35:35.446Z,744.23
2022-11-21T06:36:30.750Z,775.71
2022-11-21T06:37:25.985Z,800.84
2022-11-21T06:38:21.359Z,822.55
2022-11-21T06:39:16.497Z,819.02
2022-11-21T06:40:11.843Z,802.77
2022-11-21T06:41:07.197Z,808.60
2022-11-21T06:42:02.356Z,825.60
2022-11-21T06:42:57.617Z,836.47
2022-11-21T06:43:53.050Z,860.73
2022-11-21T06:44:48.141Z,878.29
2022-11-21T06:45:43.418Z,853.58
2022-11-21T06:46:38.695Z,836.47
2022-11-21T06:47:34.000Z,846.01
2022-11-21T06:48:29.231Z,850.86
2022-11-21T06:49:24.560Z,844.94
2022-11-21T06:50:19.822Z,847.08
2022-11-21T06:51:15.103Z,841.21
2022-11-21T06:52:10.355Z,846.01
2022-11-21T06:53:05.635Z,851.95
2022-11-21T06:54:01.025Z,855.22
2022-11-21T06:54:56.185Z,864.64
2022-11-21T06:55:51.408Z,872.55
2022-11-21T06:56:46.701Z,829.19
2022-11-21T06:57:41.963Z,835.42
2022-11-21T06:58:37.351Z,874.84
2022-11-21T06:59:32.503Z,874.84
2022-11-21T07:00:27.747Z,890.00
2022-11-21T07:01:23.143Z,903.25
2022-11-21T07:02:18.294Z,939.48
2022-11-21T07:03:13.547Z,951.53
2022-11-21T07:04:09.967Z,936.18
2022-11-21T07:05:05.060Z,957.68
2022-11-21T07:06:00.549Z,823.57
2022-11-21T07:06:55.475Z,570.92
2022-11-21T07:07:51.067Z,386.12
2022-11-21T07:08:47.905Z,363.50
2022-11-21T07:09:42.760Z,395.04
2022-11-21T07:10:37.133Z,400.74
2022-11-21T07:11:32.557Z,369.23
2022-11-21T07:12:27.714Z,384.34
2022-11-21T07:13:23.071Z,431.89
2022-11-21T07:14:18.490Z,463.08
2022-11-21T07:15:13.893Z,452.70
2022-11-21T07:16:08.966Z,315.30
2022-11-21T07:17:04.279Z,238.52
2022-11-21T07:17:59.657Z,209.97
2022-11-21T07:18:55.237Z,222.35
2022-11-21T07:19:50.475Z,213.25
2022-11-21T07:20:45.855Z,230.31
2022-11-21T07:21:41.211Z,266.62
2022-11-21T07:22:36.577Z,309.06
2022-11-21T07:23:32.078Z,354.85
2022-11-21T07:24:27.467Z,390.42
2022-11-21T07:25:22.833Z,424.46
2022-11-21T07:26:18.125Z,449.05
2022-11-21T07:27:13.188Z,430.77
2022-11-21T07:28:08.284Z,455.80
2022-11-21T07:29:03.446Z,502.13
2022-11-21T07:29:58.415Z,543.91
2022-11-21T07:30:53.496Z,552.93
2022-11-21T07:31:48.547Z,569.94
2022-11-21T07:32:43.575Z,602.38
2022-11-21T07:33:39.090Z,632.07
2022-11-21T07:34:34.175Z,668.84
2022-11-21T07:35:29.419Z,733.59
2022-11-21T07:36:24.484Z,760.25
2022-11-21T07:37:19.559Z,758.52
2022-11-21T07:38:14.660Z,752.96
2022-11-21T07:39:09.829Z,778.43
2022-11-21T07:40:04.913Z,777.52
2022-11-21T07:41:00.031Z,774.81
2022-11-21T07:41:55.104Z,750.42
2022-11-21T07:42:50.235Z,774.36
2022-11-21T07:43:45.470Z,776.61
2022-11-21T07:44:40.447Z,785.76
2022-11-21T07:45:35.539Z,808.11
2022-11-21T07:46:30.818Z,844.40
2022-11-21T07:47:25.715Z,873.12
2022-11-21T07:48:20.804Z,935.53
2022-11-21T07:49:15.771Z,912.51
2022-11-21T07:50:13.460Z,894.17
2022-11-21T07:51:08.505Z,923.24
2022-11-21T07:52:03.602Z,920.69
2022-11-21T07:52:58.548Z,934.87
2022-11-21T07:53:53.581Z,925.80
2022-11-21T07:54:48.671Z,918.16
2022-11-21T07:55:43.801Z,915.64
2022-11-21T07:56:39.233Z,908.16
2022-11-21T07:57:34.868Z,894.17
2022-11-21T07:58:30.211Z,909.40
2022-11-21T07:59:25.851Z,873.12
2022-11-21T08:00:20.811Z,863.52
2022-11-21T08:01:16.205Z,820.53
2022-11-21T08:02:11.665Z,834.90
2022-11-21T08:03:06.913Z,789.94
2022-11-21T08:04:02.268Z,789.01
2022-11-21T08:04:57.632Z,777.52
2022-11-21T08:05:53.041Z,791.82
2022-11-21T08:06:48.417Z,779.79
2022-11-21T08:07:43.885Z,742.58
2022-11-21T08:08:39.193Z,729.58
2022-11-21T08:09:39.626Z,724.82
2022-11-21T08:10:31.020Z,698.99
2022-11-21T08:11:25.421Z,736.83
2022-11-21T08:12:20.676Z,719.34
2022-11-21T08:13:20.186Z,704.15
2022-11-21T08:14:15.699Z,699.72
2022-11-21T08:15:10.947Z,701.93
2022-11-21T08:16:06.374Z,734.40
2022-11-21T08:17:01.826Z,769.01
2022-11-21T08:17:57.270Z,786.22
2022-11-21T08:18:52.584Z,795.12
2022-11-21T08:19:47.914Z,794.17
2022-11-21T08:20:43.572Z,847.62
2022-11-21T08:21:38.767Z,857.42
2022-11-21T08:22:34.125Z,868.58
2022-11-21T08:23:29.580Z,912.51
2022-11-21T08:24:24.905Z,949.50
2022-11-21T08:25:20.397Z,975.88
2022-11-21T08:26:15.916Z,913.76
2022-11-21T08:27:10.899Z,850.32
2022-11-21T08:28:05.967Z,816.02
2022-11-21T08:29:00.977Z,807.13
2022-11-21T08:29:56.064Z,827.65
2022-11-21T08:30:51.176Z,824.58
2022-11-21T08:31:46.235Z,793.70
2022-11-21T08:32:41.394Z,792.76
2022-11-21T08:33:36.423Z,780.24
2022-11-21T08:34:31.465Z,799.40
2022-11-21T08:35:26.547Z,847.62
2022-11-21T08:36:22.680Z,887.63
2022-11-21T08:37:17.769Z,903.86
2022-11-21T08:38:13.006Z,891.78
2022-11-21T08:39:08.055Z,902.03
2022-11-21T08:40:03.102Z,904.47
2022-11-21T08:40:58.228Z,877.14
2022-11-21T08:41:53.334Z,826.11
2022-11-21T08:42:48.328Z,824.07
2022-11-21T08:43:44.705Z,828.68
2022-11-21T08:44:40.177Z,854.13
2022-11-21T08:45:35.432Z,769.45
2022-11-21T08:46:30.935Z,783.45
2022-11-21T08:47:26.212Z,851.95
2022-11-21T08:48:21.842Z,868.01
2022-11-21T08:49:17.121Z,872.55
2022-11-21T08:50:12.444Z,879.45
2022-11-21T08:51:07.922Z,875.98
2022-11-21T08:52:03.323Z,889.41
2022-11-21T08:52:58.460Z,943.46
2022-11-21T08:53:53.505Z,946.14
2022-11-21T08:54:48.540Z,926.44
2022-11-21T08:55:43.515Z,953.57
2022-11-21T08:56:38.707Z,988.16
2022-11-21T08:57:33.713Z,1022.21
2022-11-21T08:58:28.797Z,1055.34
2022-11-21T08:59:26.849Z,1004.52
2022-11-21T09:00:21.855Z,991.83
2022-11-21T09:01:16.924Z,994.04
2022-11-21T09:02:12.065Z,994.04
2022-11-21T09:03:07.015Z,950.18
2022-11-21T09:04:02.191Z,925.16
2022-11-21T09:04:57.606Z,899.60
2022-11-21T09:05:52.387Z,869.14
2022-11-21T09:06:48.054Z,806.65
2022-11-21T09:07:43.471Z,797.49
2022-11-21T09:08:38.533Z,747.06
2022-11-21T09:09:33.961Z,706.39
2022-11-21T09:10:29.384Z,676.99
2022-11-21T09:11:24.609Z,670.86
2022-11-21T09:12:19.963Z,662.20
2022-11-21T09:13:15.354Z,686.04
2022-11-21T09:14:10.803Z,676.30
2022-11-21T09:15:05.947Z,648.67
2022-11-21T09:16:00.917Z,641.19
2022-11-21T09:17:00.792Z,658.28
2022-11-21T09:17:51.939Z,677.68
2022-11-21T09:18:47.092Z,707.14
2022-11-21T09:19:41.027Z,693.90
2022-11-21T09:20:36.249Z,653.12
2022-11-21T09:21:31.272Z,636.29
2022-11-21T09:22:26.409Z,653.76
2022-11-21T09:23:21.753Z,684.63
2022-11-21T09:24:16.478Z,691.02
2022-11-21T09:25:11.505Z,706.39
2022-11-21T09:26:06.959Z,737.65
2022-11-21T09:27:02.324Z,745.90
2022-11-21T09:27:57.773Z,796.54
2022-11-21T09:28:53.376Z,801.32
2022-11-21T09:29:53.930Z,766.36
2022-11-21T09:30:44.395Z,813.03
2022-11-21T09:31:38.606Z,765.92
2022-11-21T09:32:33.508Z,761.55
2022-11-21T09:33:28.591Z,780.70
2022-11-21T09:34:23.689Z,835.94
2022-11-21T09:35:18.778Z,851.40
2022-11-21T09:36:13.775Z,880.03
2022-11-21T09:37:08.837Z,902.64
2022-11-21T09:38:03.831Z,894.77
2022-11-21T09:38:58.925Z,868.01
2022-11-21T09:39:54.096Z,868.01
2022-11-21T09:40:49.009Z,881.19
2022-11-21T09:41:44.220Z,903.25
2022-11-21T09:42:39.389Z,915.01
2022-11-21T09:43:34.600Z,927.73
2022-11-21T09:44:29.924Z,897.78
2022-11-21T09:45:24.692Z,874.84
2022-11-21T09:46:19.705Z,849.78
2022-11-21T09:47:17.153Z,861.85
2022-11-21T09:48:12.215Z,900.81
2022-11-21T09:49:07.213Z,836.99
2022-11-21T09:50:02.293Z,774.36
2022-11-21T09:50:57.375Z,791.35
2022-11-21T09:51:52.479Z,802.77
2022-11-21T09:52:47.555Z,754.66
2022-11-21T09:53:42.532Z,664.84
2022-11-21T09:54:37.748Z,656.33
2022-11-21T09:55:33.102Z,631.47
2022-11-21T09:56:28.470Z,554.77
2022-11-21T09:57:23.976Z,567.03
2022-11-21T09:58:19.639Z,591.69
2022-11-21T09:59:14.967Z,612.34
2022-11-21T10:00:10.389Z,606.76
2022-11-21T10:01:05.988Z,677.68
2022-11-21T10:02:01.256Z,766.80
2022-11-21T10:02:56.708Z,840.68
2022-11-21T10:03:52.100Z,879.45
2022-11-21T10:04:47.560Z,906.31
2022-11-21T10:05:42.577Z,756.80
2022-11-21T10:06:37.682Z,769.90
2022-11-21T10:07:32.797Z,827.14
2022-11-21T10:08:27.820Z,766.36
2022-11-21T10:09:22.928Z,746.64
2022-11-21T10:10:17.999Z,799.40
2022-11-21T10:11:19.417Z,816.02
2022-11-21T10:12:09.125Z,770.78
2022-11-21T10:13:03.205Z,794.17
2022-11-21T10:13:58.225Z,868.01
2022-11-21T10:14:53.338Z,954.25
2022-11-21T10:15:48.351Z,999.25
2022-11-21T10:16:43.425Z,1019.86
2022-11-21T10:17:38.479Z,965.29
2022-11-21T10:18:36.236Z,1017.53
2022-11-21T10:19:31.664Z,1033.28
2022-11-21T10:20:27.517Z,1031.69
2022-11-21T10:21:22.715Z,1051.18
2022-11-21T10:22:18.178Z,1042.16
2022-11-21T10:23:13.874Z,1062.90
2022-11-21T10:24:09.217Z,1110.65
2022-11-21T10:25:04.626Z,1153.85
2022-11-21T10:25:59.983Z,1161.88
2022-11-21T10:26:55.358Z,1180.37
2022-11-21T10:27:50.901Z,1240.71
2022-11-21T10:28:46.291Z,1219.18
2022-11-21T10:29:41.799Z,1213.64
2022-11-21T10:30:37.433Z,1188.78
2022-11-21T10:31:32.819Z,1154.84
2022-11-21T10:32:27.879Z,1139.08
2022-11-21T10:33:22.960Z,1058.68
2022-11-21T10:34:18.217Z,959.74
2022-11-21T10:35:13.182Z,875.98
2022-11-21T10:36:08.163Z,878.29
2022-11-21T10:37:06.466Z,851.95
2022-11-21T10:37:59.230Z,792.76
2022-11-21T10:38:53.264Z,738.46
2022-11-21T10:39:48.345Z,717.03
2022-11-21T10:40:43.471Z,679.06
2022-11-21T10:41:41.012Z,657.63
2022-11-21T10:42:36.051Z,612.34
2022-11-21T10:43:31.118Z,601.29
2022-11-21T10:44:26.647Z,522.60
2022-11-21T10:45:21.287Z,505.94
2022-11-21T10:46:16.387Z,508.26
2022-11-21T10:47:11.397Z,568.00
2022-11-21T10:48:08.287Z,618.01
2022-11-21T10:49:02.131Z,644.91
2022-11-21T10:49:57.652Z,655.04
2022-11-21T10:50:52.986Z,664.18
2022-11-21T10:51:48.425Z,662.20
2022-11-21T10:52:43.832Z,706.39
2022-11-21T10:53:40.488Z,740.10
2022-11-21T10:54:35.847Z,823.06
2022-11-21T10:55:31.300Z,880.61
2022-11-21T10:56:26.822Z,899.60
2022-11-21T10:57:22.228Z,963.20
2022-11-21T10:58:17.343Z,959.05
2022-11-21T10:59:12.486Z,884.11
2022-11-21T11:00:07.471Z,905.09
2022-11-21T11:01:02.565Z,906.31
2022-11-21T11:01:57.492Z,925.80
2022-11-21T11:02:52.542Z,948.83
2022-11-21T11:04:06.846Z,1018.31
2022-11-21T11:04:50.790Z,1062.90
2022-11-21T11:05:39.717Z,1026.92
2022-11-21T11:06:33.756Z,1047.06
2022-11-21T11:07:28.825Z,1056.17
2022-11-21T11:08:25.205Z,1088.91
2022-11-21T11:09:20.433Z,1065.44
2022-11-21T11:10:16.136Z,1096.06
2022-11-21T11:11:11.723Z,1059.52
2022-11-21T11:12:07.171Z,984.51
2022-11-21T11:13:05.307Z,1026.13
2022-11-21T11:13:59.180Z,985.97
2022-11-21T11:14:53.459Z,1041.34
2022-11-21T11:15:48.964Z,1041.34
2022-11-21T11:16:44.324Z,1089.80
2022-11-21T11:17:39.877Z,1131.36
2022-11-21T11:18:35.335Z,1112.50
2022-11-21T11:19:37.001Z,1092.47